createdAt,value
2022-12-13T00:00:01.310Z,100361.94
2022-12-13T00:02:30.351Z,100362.22
2022-12-13T00:04:58.912Z,100367.63
2022-12-13T00:07:27.822Z,100365.31
2022-12-13T00:09:56.502Z,100370.59
2022-12-13T00:12:25.383Z,100370.97
2022-12-13T00:14:54.013Z,100367.72
2022-12-13T00:17:23.120Z,100361.81
2022-12-13T00:19:53.382Z,100363.88
2022-12-13T00:22:22.271Z,100368.44
2022-12-13T00:24:50.762Z,100373.97
2022-12-13T00:27:19.613Z,100381.19
2022-12-13T00:29:48.950Z,100379.75
2022-12-13T00:32:17.870Z,100380.69
2022-12-13T00:34:46.630Z,100378.16
2022-12-13T00:37:16.224Z,100373.00
2022-12-13T00:39:44.901Z,100375.16
2022-12-13T00:42:13.900Z,100363.72
2022-12-13T00:44:42.420Z,100354.19
2022-12-13T00:47:12.023Z,100351.75
2022-12-13T00:49:40.883Z,100347.41
2022-12-13T00:52:09.824Z,100352.84
2022-12-13T00:54:38.445Z,100349.34
2022-12-13T00:57:07.351Z,100351.25
2022-12-13T00:59:35.959Z,100349.59
2022-12-13T01:02:05.045Z,100345.34
2022-12-13T01:04:33.617Z,100342.97
2022-12-13T01:07:02.617Z,100350.28
2022-12-13T01:09:32.795Z,100350.28
2022-12-13T01:12:05.574Z,100356.41
2022-12-13T01:14:37.095Z,100358.44
2022-12-13T01:17:06.500Z,100363.00
2022-12-13T01:19:35.815Z,100361.34
2022-12-13T01:22:07.664Z,100354.34
2022-12-13T01:24:36.763Z,100347.28
2022-12-13T01:27:05.665Z,100361.69
2022-12-13T01:29:34.665Z,100346.13
2022-12-13T01:32:05.153Z,100349.50
2022-12-13T01:34:33.682Z,100332.06
2022-12-13T01:37:02.865Z,100331.25
2022-12-13T01:39:31.395Z,100319.06
2022-12-13T01:42:07.304Z,100302.81
2022-12-13T01:44:57.281Z,100303.31
2022-12-13T01:47:28.964Z,100300.78
2022-12-13T01:49:59.660Z,100300.91
2022-12-13T01:52:30.993Z,100299.19
2022-12-13T01:55:03.391Z,100294.88
2022-12-13T01:57:35.164Z,100295.84
2022-12-13T02:00:06.274Z,100276.13
2022-12-13T02:02:36.403Z,100271.03
2022-12-13T02:05:24.706Z,100283.78
2022-12-13T02:07:54.626Z,100290.91
2022-12-13T02:10:24.133Z,100282.34
2022-12-13T02:12:53.386Z,100295.56
2022-12-13T02:15:22.149Z,100293.91
2022-12-13T02:18:31.854Z,100287.88
2022-12-13T02:21:33.499Z,100285.69
2022-12-13T02:24:13.045Z,100281.25
2022-12-13T02:27:13.508Z,100284.72
2022-12-13T02:30:22.703Z,100287.00
2022-12-13T02:33:29.406Z,100276.13
2022-12-13T02:36:20.617Z,100271.06
2022-12-13T02:39:14.946Z,100273.63
2022-12-13T02:41:58.960Z,100266.19
2022-12-13T02:44:44.490Z,100252.56
2022-12-13T02:47:23.087Z,100274.63
2022-12-13T02:50:00.967Z,100269.34
2022-12-13T02:52:31.610Z,100277.91
2022-12-13T02:55:00.707Z,100273.72
2022-12-13T02:57:32.009Z,100268.28
2022-12-13T03:00:08.527Z,100262.97
2022-12-13T03:03:06.441Z,100266.94
2022-12-13T03:06:14.837Z,100261.19
2022-12-13T03:09:29.778Z,100262.97
2022-12-13T03:12:37.636Z,100251.56
2022-12-13T03:15:24.719Z,100261.53
2022-12-13T03:17:55.170Z,100258.16
2022-12-13T03:20:27.478Z,100261.31
2022-12-13T03:22:56.778Z,100260.34
2022-12-13T03:25:32.531Z,100251.69
2022-12-13T03:28:02.880Z,100252.72
2022-12-13T03:30:34.011Z,100257.41
2022-12-13T03:33:02.750Z,100247.06
2022-12-13T03:35:34.840Z,100251.16
2022-12-13T03:38:21.425Z,100248.63
2022-12-13T03:40:56.688Z,100246.44
2022-12-13T03:43:25.291Z,100255.09
2022-12-13T03:45:55.725Z,100254.38
2022-12-13T03:48:24.548Z,100254.50
2022-12-13T03:50:54.496Z,100252.81
2022-12-13T03:53:33.275Z,100242.59
2022-12-13T03:56:06.203Z,100242.72
2022-12-13T03:58:37.656Z,100244.38
2022-12-13T04:01:09.848Z,100245.69
2022-12-13T04:03:38.870Z,100243.06
2022-12-13T04:06:08.221Z,100240.56
2022-12-13T04:08:37.045Z,100240.78
2022-12-13T04:11:26.308Z,100235.69
2022-12-13T04:13:55.496Z,100241.97
2022-12-13T04:16:24.733Z,100238.94
2022-12-13T04:18:53.547Z,100245.09
2022-12-13T04:21:22.372Z,100237.78
2022-12-13T04:23:51.161Z,100235.25
2022-12-13T04:26:20.265Z,100227.06
2022-12-13T04:28:54.264Z,100227.81
2022-12-13T04:31:24.060Z,100231.41
2022-12-13T04:33:53.188Z,100241.53
2022-12-13T04:36:31.070Z,100237.47
2022-12-13T04:39:22.056Z,100243.97
2022-12-13T04:41:55.052Z,100232.91
2022-12-13T04:44:28.340Z,100242.50
2022-12-13T04:47:01.047Z,100240.94
2022-12-13T04:49:31.637Z,100253.94
2022-12-13T04:52:02.570Z,100254.53
2022-12-13T04:54:35.719Z,100253.53
2022-12-13T04:57:08.475Z,100249.81
2022-12-13T04:59:37.505Z,100251.59
2022-12-13T05:02:07.361Z,100247.81
2022-12-13T05:04:36.025Z,100240.00
2022-12-13T05:07:04.869Z,100238.91
2022-12-13T05:09:33.377Z,100251.03
2022-12-13T05:12:03.294Z,100248.84
2022-12-13T05:14:32.350Z,100244.97
2022-12-13T05:17:01.967Z,100248.06
2022-12-13T05:19:31.705Z,100248.06
2022-12-13T05:22:02.228Z,100238.16
2022-12-13T05:24:32.195Z,100250.47
2022-12-13T05:27:01.226Z,100246.56
2022-12-13T05:29:29.936Z,100248.91
2022-12-13T05:31:59.248Z,100243.59
2022-12-13T05:34:28.068Z,100250.59
2022-12-13T05:36:57.248Z,100244.81
2022-12-13T05:39:28.604Z,100242.59
2022-12-13T05:42:02.454Z,100246.94
2022-12-13T05:44:32.843Z,100245.78
2022-12-13T05:47:02.868Z,100247.34
2022-12-13T05:49:32.466Z,100250.84
2022-12-13T05:52:02.948Z,100249.91
2022-12-13T05:54:31.590Z,100256.91
2022-12-13T05:57:01.058Z,100250.66
2022-12-13T05:59:29.696Z,100254.31
2022-12-13T06:01:58.674Z,100252.28
2022-12-13T06:04:28.167Z,100243.66
2022-12-13T06:06:57.225Z,100246.56
2022-12-13T06:09:25.897Z,100244.72
2022-12-13T06:12:01.186Z,100244.53
2022-12-13T06:14:30.525Z,100249.84
2022-12-13T06:16:59.588Z,100253.66
2022-12-13T06:19:28.309Z,100251.19
2022-12-13T06:21:57.468Z,100249.16
2022-12-13T06:24:27.928Z,100244.63
2022-12-13T06:26:57.130Z,100243.22
2022-12-13T06:29:26.174Z,100239.31
2022-12-13T06:32:03.090Z,100251.22
2022-12-13T06:39:25.236Z,100246.41
2022-12-13T06:42:06.743Z,100254.84
2022-12-13T06:44:35.916Z,100253.16
2022-12-13T06:47:10.768Z,100260.66
2022-12-13T06:49:44.586Z,100258.44
2022-12-13T06:52:15.043Z,100258.97
2022-12-13T06:54:44.154Z,100261.75
2022-12-13T06:57:13.436Z,100258.91
2022-12-13T06:59:42.877Z,100262.22
2022-12-13T07:02:24.733Z,100263.19
2022-12-13T07:04:55.356Z,100269.84
2022-12-13T07:07:26.607Z,100268.66
2022-12-13T07:09:55.703Z,100263.63
2022-12-13T07:12:24.788Z,100268.16
2022-12-13T07:14:55.235Z,100271.78
2022-12-13T07:17:32.935Z,100268.00
2022-12-13T07:20:10.912Z,100270.38
2022-12-13T07:22:46.602Z,100271.53
2022-12-13T07:25:26.749Z,100279.38
2022-12-13T07:28:03.116Z,100284.00
2022-12-13T07:30:41.344Z,100282.91
2022-12-13T07:33:11.535Z,100281.63
2022-12-13T07:35:40.829Z,100285.75
2022-12-13T07:38:10.945Z,100288.13
2022-12-13T07:40:40.521Z,100278.31
2022-12-13T07:43:10.535Z,100288.81
2022-12-13T07:45:39.555Z,100285.69
2022-12-13T07:48:10.185Z,100286.34
2022-12-13T07:50:39.205Z,100296.13
2022-12-13T07:53:08.990Z,100287.59
2022-12-13T07:55:37.975Z,100289.94
2022-12-13T07:58:10.736Z,100288.50
2022-12-13T08:00:40.637Z,100300.16
2022-12-13T08:03:25.136Z,100304.03
2022-12-13T08:06:06.425Z,100300.94
2022-12-13T08:08:36.011Z,100303.59
2022-12-13T08:11:12.508Z,100307.47
2022-12-13T08:13:42.864Z,100305.69
2022-12-13T08:16:25.928Z,100304.44
2022-12-13T08:19:02.306Z,100310.00
2022-12-13T08:21:53.818Z,100306.00
2022-12-13T08:24:25.429Z,100306.88
2022-12-13T08:27:02.093Z,100315.38
2022-12-13T08:29:33.617Z,100315.56
2022-12-13T08:32:05.852Z,100318.47
2022-12-13T08:34:34.903Z,100313.50
2022-12-13T08:37:04.528Z,100316.03
2022-12-13T08:39:36.139Z,100313.22
2022-12-13T08:42:18.941Z,100317.31
2022-12-13T08:44:50.794Z,100315.63
2022-12-13T08:47:25.980Z,100309.06
2022-12-13T08:50:02.234Z,100311.78
2022-12-13T08:52:39.235Z,100321.69
2022-12-13T08:55:12.748Z,100328.25
2022-12-13T08:57:42.375Z,100329.50
2022-12-13T09:00:18.006Z,100332.66
2022-12-13T09:02:46.860Z,100334.03
2022-12-13T09:05:33.210Z,100337.50
2022-12-13T09:08:13.321Z,100333.97
2022-12-13T09:11:11.449Z,100344.09
2022-12-13T09:13:51.524Z,100340.03
2022-12-13T09:16:24.875Z,100341.72
2022-12-13T09:18:55.372Z,100336.66
2022-12-13T09:21:30.952Z,100336.53
2022-12-13T09:24:02.321Z,100338.94
2022-12-13T09:26:37.633Z,100337.00
2022-12-13T09:29:10.626Z,100342.03
2022-12-13T09:31:41.337Z,100343.97
2022-12-13T09:34:11.212Z,100340.16
2022-12-13T09:36:40.553Z,100352.88
2022-12-13T09:39:12.145Z,100350.53
2022-12-13T09:41:49.423Z,100349.19
2022-12-13T09:44:43.851Z,100351.84
2022-12-13T09:47:38.273Z,100348.84
2022-12-13T09:50:37.525Z,100359.22
2022-12-13T09:53:34.049Z,100360.56
2022-12-13T09:56:10.593Z,100358.03
2022-12-13T09:58:40.574Z,100357.72
2022-12-13T10:01:11.464Z,100363.19
2022-12-13T10:03:41.966Z,100363.66
2022-12-13T10:06:22.647Z,100362.97
2022-12-13T10:08:57.947Z,100360.13
2022-12-13T10:11:32.392Z,100365.13
2022-12-13T10:14:10.265Z,100367.19
2022-12-13T10:16:44.270Z,100371.78
2022-12-13T10:19:35.146Z,100369.78
2022-12-13T10:22:05.504Z,100372.81
2022-12-13T10:24:58.387Z,100363.91
2022-12-13T10:27:57.125Z,100359.25
2022-12-13T10:30:29.318Z,100349.72
2022-12-13T10:32:58.938Z,100348.31
2022-12-13T10:35:29.084Z,100347.91
2022-12-13T10:38:00.268Z,100351.03
2022-12-13T10:40:34.924Z,100338.69
2022-12-13T10:43:18.416Z,100329.34
2022-12-13T10:45:57.719Z,100334.16
2022-12-13T10:48:28.834Z,100331.13
2022-12-13T10:50:59.518Z,100321.34
2022-12-13T10:53:32.160Z,100312.06
2022-12-13T10:56:02.709Z,100314.59
2022-12-13T10:58:43.254Z,100322.56
2022-12-13T11:01:22.252Z,100309.59
2022-12-13T11:04:27.148Z,100301.50
2022-12-13T11:07:00.094Z,100295.91
2022-12-13T11:09:38.666Z,100302.09
2022-12-13T11:12:15.084Z,100295.59
2022-12-13T11:14:57.214Z,100299.38
2022-12-13T11:17:29.443Z,100295.84
2022-12-13T11:20:27.735Z,100298.38
2022-12-13T11:23:23.686Z,100295.97
2022-12-13T11:25:57.126Z,100289.19
2022-12-13T11:28:52.336Z,100300.34
2022-12-13T11:31:40.395Z,100296.28
2022-12-13T11:34:21.736Z,100286.88
2022-12-13T11:37:01.985Z,100290.59
2022-12-13T11:39:34.725Z,100286.50
2022-12-13T11:42:38.124Z,100283.22
2022-12-13T11:45:13.250Z,100278.63
2022-12-13T11:48:01.106Z,100282.56
2022-12-13T11:50:34.762Z,100272.13
2022-12-13T11:53:28.372Z,100266.88
2022-12-13T11:56:08.644Z,100273.03
2022-12-13T12:01:47.785Z,100266.97
2022-12-13T12:04:30.384Z,100267.28
2022-12-13T12:07:31.939Z,100263.53
2022-12-13T12:10:15.385Z,100265.88
2022-12-13T12:12:49.418Z,100256.56
2022-12-13T12:15:26.513Z,100251.69
2022-12-13T12:17:57.172Z,100255.59
2022-12-13T12:20:43.855Z,100257.00
2022-12-13T12:23:22.466Z,100254.72
2022-12-13T12:26:06.936Z,100247.72
2022-12-13T12:29:01.315Z,100241.28
2022-12-13T12:31:55.957Z,100248.66
2022-12-13T12:34:43.333Z,100236.63
2022-12-13T12:37:36.163Z,100243.19
2022-12-13T12:40:24.902Z,100234.09
2022-12-13T12:43:23.306Z,100229.97
2022-12-13T12:46:09.179Z,100233.03
2022-12-13T12:49:05.642Z,100230.38
2022-12-13T12:51:44.045Z,100221.06
2022-12-13T12:54:53.885Z,100220.66
2022-12-13T12:57:35.057Z,100216.38
2022-12-13T13:00:16.825Z,100223.09
2022-12-13T13:03:26.456Z,100217.25
2022-12-13T13:06:24.215Z,100212.81
2022-12-13T13:08:59.545Z,100221.25
2022-12-13T13:11:33.829Z,100225.06
2022-12-13T13:14:33.376Z,100227.16
2022-12-13T13:17:29.185Z,100224.22
2022-12-13T13:20:25.336Z,100233.19
2022-12-13T13:23:17.624Z,100233.72
2022-12-13T13:26:16.336Z,100231.63
2022-12-13T13:28:42.853Z,100241.91
2022-12-13T13:31:13.225Z,100234.06
2022-12-13T13:33:52.902Z,100241.88
2022-12-13T13:36:41.944Z,100249.97
2022-12-13T13:39:20.055Z,100238.31
2022-12-13T13:42:23.375Z,100242.94
2022-12-13T13:44:53.016Z,100238.16
2022-12-13T13:47:25.141Z,100245.41
2022-12-13T13:50:08.906Z,100244.69
2022-12-13T13:53:08.345Z,100241.59
2022-12-13T13:56:09.474Z,100237.22
2022-12-13T13:59:03.206Z,100246.66
2022-12-13T14:02:01.042Z,100238.41
2022-12-13T14:04:48.115Z,100245.97
2022-12-13T14:07:46.515Z,100242.22
2022-12-13T14:10:21.796Z,100241.22
2022-12-13T14:13:25.100Z,100244.53
2022-12-13T14:16:20.318Z,100248.50
2022-12-13T14:19:25.296Z,100246.97
2022-12-13T14:22:12.615Z,100245.16
2022-12-13T14:24:44.671Z,100233.16
2022-12-13T14:27:21.968Z,100221.56
2022-12-13T14:29:58.228Z,100221.72
2022-12-13T14:32:30.222Z,100226.34
2022-12-13T14:35:25.645Z,100227.16
2022-12-13T14:38:00.685Z,100222.41
2022-12-13T14:40:37.126Z,100221.69
2022-12-13T14:43:06.244Z,100215.34
2022-12-13T14:45:38.293Z,100214.53
2022-12-13T14:48:13.657Z,100203.72
2022-12-13T14:50:44.131Z,100210.84
2022-12-13T14:53:37.887Z,100214.16
2022-12-13T14:56:28.524Z,100211.66
2022-12-13T14:59:03.030Z,100213.03
2022-12-13T15:01:33.824Z,100220.53
2022-12-13T15:04:21.322Z,100221.06
2022-12-13T15:06:56.775Z,100232.38
2022-12-13T15:09:28.889Z,100226.66
2022-12-13T15:12:14.882Z,100230.91
2022-12-13T15:14:51.439Z,100226.53
2022-12-13T15:17:29.719Z,100230.91
2022-12-13T15:20:28.760Z,100233.06
2022-12-13T15:23:10.556Z,100230.72
2022-12-13T15:25:42.059Z,100241.94
2022-12-13T15:28:21.457Z,100234.69
2022-12-13T15:30:51.391Z,100241.13
2022-12-13T15:33:32.382Z,100251.75
2022-12-13T15:36:11.535Z,100250.41
2022-12-13T15:39:02.084Z,100253.19
2022-12-13T15:41:37.318Z,100256.31
2022-12-13T15:44:19.905Z,100249.72
2022-12-13T15:46:50.075Z,100238.06
2022-12-13T15:49:32.867Z,100246.56
2022-12-13T15:52:04.623Z,100239.13
2022-12-13T15:54:34.043Z,100249.16
2022-12-13T15:57:24.319Z,100248.88
2022-12-13T16:00:11.243Z,100258.78
2022-12-13T16:02:53.964Z,100254.69
2022-12-13T16:05:34.550Z,100255.38
2022-12-13T16:08:26.960Z,100259.09
2022-12-13T16:10:56.460Z,100248.91
2022-12-13T16:13:37.395Z,100260.22
2022-12-13T16:16:28.201Z,100259.22
2022-12-13T16:19:01.541Z,100253.78
2022-12-13T16:21:30.541Z,100253.16
2022-12-13T16:24:00.845Z,100257.78
2022-12-13T16:26:29.944Z,100259.34
2022-12-13T16:29:01.107Z,100254.78
2022-12-13T16:31:36.096Z,100254.66
2022-12-13T16:34:07.241Z,100251.50
2022-12-13T16:36:36.589Z,100243.97
2022-12-13T16:39:06.738Z,100238.66
2022-12-13T16:41:39.903Z,100245.69
2022-12-13T16:44:10.932Z,100247.81
2022-12-13T16:47:13.151Z,100252.94
2022-12-13T16:49:32.361Z,100236.81
2022-12-13T16:52:03.480Z,100236.81
2022-12-13T16:54:33.176Z,100256.53
2022-12-13T16:57:02.087Z,100241.81
2022-12-13T16:59:31.489Z,100244.03
2022-12-13T17:02:00.446Z,100247.22
2022-12-13T17:04:29.687Z,100251.81
2022-12-13T17:06:58.536Z,100252.25
2022-12-13T17:09:27.711Z,100246.47
2022-12-13T17:11:56.737Z,100241.56
2022-12-13T17:14:25.721Z,100246.41
2022-12-13T17:16:54.438Z,100250.06
2022-12-13T17:19:25.262Z,100254.66
2022-12-13T17:21:54.389Z,100250.25
2022-12-13T17:24:24.061Z,100248.63
2022-12-13T17:26:56.738Z,100245.13
2022-12-13T17:29:26.897Z,100246.81
2022-12-13T17:31:55.671Z,100253.28
2022-12-13T17:34:24.891Z,100246.94
2022-12-13T17:36:53.841Z,100246.97
2022-12-13T17:39:23.117Z,100245.06
2022-12-13T17:41:54.624Z,100234.69
2022-12-13T17:44:25.932Z,100242.56
2022-12-13T17:46:55.720Z,100233.59
2022-12-13T17:49:25.384Z,100228.72
2022-12-13T17:51:54.726Z,100229.69
2022-12-13T17:54:25.560Z,100229.38
2022-12-13T17:56:54.734Z,100240.84
2022-12-13T17:59:24.383Z,100225.56
2022-12-13T18:01:54.329Z,100225.31
2022-12-13T18:04:23.603Z,100224.03
2022-12-13T18:06:52.589Z,100222.50
2022-12-13T18:09:21.695Z,100222.75
2022-12-13T18:11:50.730Z,100219.78
2022-12-13T18:14:19.947Z,100219.22
2022-12-13T18:16:48.860Z,100217.50
2022-12-13T18:19:19.830Z,100207.84
2022-12-13T18:21:48.756Z,100209.06
2022-12-13T18:24:17.886Z,100219.94
2022-12-13T18:26:46.716Z,100215.88
2022-12-13T18:29:16.000Z,100216.59
2022-12-13T18:31:45.020Z,100218.41
2022-12-13T18:34:14.865Z,100219.81
2022-12-13T18:36:45.091Z,100218.47
2022-12-13T18:39:14.345Z,100223.94
2022-12-13T18:41:43.185Z,100224.81
2022-12-13T18:44:14.087Z,100218.28
2022-12-13T18:46:46.110Z,100212.13
2022-12-13T18:49:16.605Z,100209.50
2022-12-13T18:51:45.380Z,100216.81
2022-12-13T18:54:14.517Z,100220.88
2022-12-13T18:56:43.360Z,100224.69
2022-12-13T18:59:12.730Z,100225.00
2022-12-13T19:01:42.124Z,100227.53
2022-12-13T19:04:11.490Z,100222.72
2022-12-13T19:06:40.329Z,100226.63
2022-12-13T19:09:09.451Z,100217.63
2022-12-13T19:11:38.776Z,100220.56
2022-12-13T19:14:09.266Z,100219.75
2022-12-13T19:16:38.181Z,100215.69
2022-12-13T19:19:07.405Z,100220.25
2022-12-13T19:21:36.476Z,100215.47
2022-12-13T19:24:05.844Z,100208.06
2022-12-13T19:26:34.970Z,100213.66
2022-12-13T19:29:05.751Z,100213.31
2022-12-13T19:31:34.896Z,100212.75
2022-12-13T19:34:05.033Z,100212.19
2022-12-13T19:36:33.845Z,100213.16
2022-12-13T19:39:03.061Z,100219.56
2022-12-13T19:41:34.836Z,100216.91
2022-12-13T19:44:05.555Z,100228.25
2022-12-13T19:46:34.473Z,100225.31
2022-12-13T19:49:03.636Z,100235.69
2022-12-13T19:51:39.070Z,100237.53
2022-12-13T19:54:08.824Z,100240.38
2022-12-13T19:56:37.840Z,100241.22
2022-12-13T19:59:07.304Z,100239.72
2022-12-13T20:01:36.211Z,100238.47
2022-12-13T20:04:05.646Z,100229.13
2022-12-13T20:06:34.540Z,100228.59
2022-12-13T20:09:03.938Z,100223.97
2022-12-13T20:11:32.860Z,100223.28
2022-12-13T20:14:02.936Z,100222.28
2022-12-13T20:16:31.992Z,100222.84
2022-12-13T20:19:01.310Z,100219.06
2022-12-13T20:21:30.385Z,100216.81
2022-12-13T20:23:59.563Z,100213.56
2022-12-13T20:26:30.490Z,100226.00
2022-12-13T20:29:00.821Z,100224.59
2022-12-13T20:31:32.099Z,100234.06
2022-12-13T20:34:04.922Z,100237.78
2022-12-13T20:36:33.802Z,100239.75
2022-12-13T20:39:03.589Z,100236.78
2022-12-13T20:41:35.320Z,100228.94
2022-12-13T20:44:06.017Z,100223.06
2022-12-13T20:46:35.046Z,100226.81
2022-12-13T20:49:05.617Z,100228.06
2022-12-13T20:51:36.922Z,100230.84
2022-12-13T20:54:06.237Z,100237.56
2022-12-13T20:56:37.747Z,100240.94
2022-12-13T20:59:09.130Z,100237.03
2022-12-13T21:01:39.913Z,100238.75
2022-12-13T21:04:11.033Z,100244.53
2022-12-13T21:06:42.700Z,100243.03
2022-12-13T21:09:13.241Z,100238.28
2022-12-13T21:11:44.362Z,100227.97
2022-12-13T21:14:27.593Z,100235.84
2022-12-13T21:17:05.061Z,100235.28
2022-12-13T21:19:39.390Z,100236.38
2022-12-13T21:22:08.926Z,100228.25
2022-12-13T21:24:39.354Z,100221.28
2022-12-13T21:27:08.677Z,100220.16
2022-12-13T21:29:38.576Z,100224.94
2022-12-13T21:32:07.605Z,100221.16
2022-12-13T21:34:36.816Z,100215.13
2022-12-13T21:37:06.110Z,100220.16
2022-12-13T21:39:35.281Z,100222.41
2022-12-13T21:42:06.545Z,100215.69
2022-12-13T21:44:35.716Z,100217.34
2022-12-13T21:47:13.183Z,100216.19
2022-12-13T21:52:50.221Z,100225.69
2022-12-13T21:58:29.499Z,100213.50
2022-12-13T22:00:59.029Z,100214.59
2022-12-13T22:03:27.880Z,100227.34
2022-12-13T22:05:56.940Z,100227.22
2022-12-13T22:08:26.514Z,100220.94
2022-12-13T22:11:19.316Z,100221.25
2022-12-13T22:13:50.234Z,100225.47
2022-12-13T22:16:19.347Z,100222.81
2022-12-13T22:18:48.183Z,100219.38
2022-12-13T22:21:17.402Z,100221.75
2022-12-13T22:23:46.441Z,100221.13
2022-12-13T22:26:16.105Z,100225.56
2022-12-13T22:28:45.966Z,100222.66
2022-12-13T22:31:15.427Z,100226.56
2022-12-13T22:33:45.104Z,100227.91
2022-12-13T22:36:14.354Z,100232.53
2022-12-13T22:38:43.794Z,100223.53
2022-12-13T22:41:16.372Z,100222.41
2022-12-13T22:43:45.499Z,100225.56
2022-12-13T22:46:19.814Z,100216.91
2022-12-13T22:48:48.627Z,100211.16
2022-12-13T22:51:18.283Z,100220.09
2022-12-13T22:53:47.483Z,100214.47
2022-12-13T22:56:20.104Z,100206.06
2022-12-13T22:58:54.365Z,100201.41
2022-12-13T23:01:25.346Z,100192.63
2022-12-13T23:03:54.140Z,100185.78
2022-12-13T23:06:25.565Z,100180.28
2022-12-13T23:08:56.461Z,100178.84
2022-12-13T23:11:45.261Z,100179.38
2022-12-13T23:14:15.951Z,100171.69
2022-12-13T23:16:46.046Z,100157.56
2022-12-13T23:22:07.458Z,100159.47
2022-12-13T23:24:36.210Z,100149.13
2022-12-13T23:27:05.932Z,100145.06
2022-12-13T23:29:34.775Z,100138.19
2022-12-13T23:32:03.849Z,100135.81
2022-12-13T23:34:32.670Z,100130.03
2022-12-13T23:37:01.729Z,100117.16
2022-12-13T23:39:30.434Z,100119.09
2022-12-13T23:41:59.451Z,100121.28
2022-12-13T23:44:28.166Z,100116.97
2022-12-13T23:46:57.230Z,100115.66
2022-12-13T23:49:25.964Z,100107.00
2022-12-13T23:51:55.229Z,100103.91
2022-12-13T23:54:23.925Z,100109.59
2022-12-13T23:56:53.113Z,100106.22
2022-12-13T23:59:22.759Z,100103.72
